sensor_id;sensor_type;location;lat;lon;timestamp;pressure;altitude;pressure_sealevel;temperature;humidity
6532;BME280;3299;42.004;24.868;2023-03-18T00:02:17;98635.94;;;5.10;70.67
6532;BME280;3299;42.004;24.868;2023-03-18T00:04:43;98682.38;;;5.43;70.77
6532;BME280;3299;42.004;24.868;2023-03-18T00:07:11;98639.75;;;5.20;70.58
6532;BME280;3299;42.004;24.868;2023-03-18T00:09:36;98685.34;;;5.52;70.80
6532;BME280;3299;42.004;24.868;2023-03-18T00:12:03;98689.47;;;5.56;70.92
6532;BME280;3299;42.004;24.868;2023-03-18T00:14:29;98722.09;;;5.73;70.75
6532;BME280;3299;42.004;24.868;2023-03-18T00:16:55;98723.00;;;5.72;70.78
6532;BME280;3299;42.004;24.868;2023-03-18T00:19:21;98662.56;;;5.26;71.25
6532;BME280;3299;42.004;24.868;2023-03-18T00:21:50;98690.91;;;5.62;70.80
6532;BME280;3299;42.004;24.868;2023-03-18T00:24:16;98713.63;;;5.71;70.58
6532;BME280;3299;42.004;24.868;2023-03-18T00:26:42;98674.09;;;5.36;71.45
6532;BME280;3299;42.004;24.868;2023-03-18T00:29:09;98646.41;;;5.24;71.58
6532;BME280;3299;42.004;24.868;2023-03-18T00:31:36;98714.91;;;5.61;71.85
6532;BME280;3299;42.004;24.868;2023-03-18T00:34:04;98708.25;;;5.57;71.55
6532;BME280;3299;42.004;24.868;2023-03-18T00:36:30;98621.28;;;5.12;71.59
6532;BME280;3299;42.004;24.868;2023-03-18T00:38:57;98682.03;;;5.50;71.58
6532;BME280;3299;42.004;24.868;2023-03-18T00:41:27;98607.72;;;5.29;71.40
6532;BME280;3299;42.004;24.868;2023-03-18T00:43:54;98697.50;;;5.87;71.23
6532;BME280;3299;42.004;24.868;2023-03-18T00:46:24;98677.53;;;5.74;70.82
6532;BME280;3299;42.004;24.868;2023-03-18T00:48:52;98700.34;;;5.81;70.76
6532;BME280;3299;42.004;24.868;2023-03-18T00:51:19;98643.91;;;5.61;70.89
6532;BME280;3299;42.004;24.868;2023-03-18T00:53:50;98644.34;;;5.51;71.07
6532;BME280;3299;42.004;24.868;2023-03-18T00:56:18;98686.53;;;5.84;71.23
6532;BME280;3299;42.004;24.868;2023-03-18T00:58:44;98584.84;;;5.24;71.08
6532;BME280;3299;42.004;24.868;2023-03-18T01:01:10;98620.34;;;5.52;71.10
6532;BME280;3299;42.004;24.868;2023-03-18T01:03:38;98643.06;;;5.79;70.20
6532;BME280;3299;42.004;24.868;2023-03-18T01:06:07;98621.56;;;5.63;69.86
6532;BME280;3299;42.004;24.868;2023-03-18T01:08:34;98614.59;;;5.65;69.86
6532;BME280;3299;42.004;24.868;2023-03-18T01:11:00;98588.94;;;5.65;69.80
6532;BME280;3299;42.004;24.868;2023-03-18T01:13:26;98636.63;;;5.89;70.26
6532;BME280;3299;42.004;24.868;2023-03-18T01:15:52;98682.81;;;6.26;69.99
6532;BME280;3299;42.004;24.868;2023-03-18T01:18:19;98684.03;;;6.36;70.24
6532;BME280;3299;42.004;24.868;2023-03-18T01:20:44;98676.47;;;6.33;69.98
6532;BME280;3299;42.004;24.868;2023-03-18T01:23:11;98692.75;;;6.51;69.48
6532;BME280;3299;42.004;24.868;2023-03-18T01:25:37;98670.53;;;6.50;69.05
6532;BME280;3299;42.004;24.868;2023-03-18T01:28:03;98600.06;;;6.20;68.70
6532;BME280;3299;42.004;24.868;2023-03-18T01:30:30;98597.38;;;6.04;69.20
6532;BME280;3299;42.004;24.868;2023-03-18T01:32:56;98598.13;;;6.06;69.25
6532;BME280;3299;42.004;24.868;2023-03-18T01:35:22;98624.03;;;6.37;69.13
6532;BME280;3299;42.004;24.868;2023-03-18T01:37:51;98583.59;;;6.24;68.52
6532;BME280;3299;42.004;24.868;2023-03-18T01:40:18;98668.06;;;6.82;68.17
6532;BME280;3299;42.004;24.868;2023-03-18T01:42:51;98594.09;;;6.36;67.99
6532;BME280;3299;42.004;24.868;2023-03-18T01:45:21;98631.75;;;6.54;68.62
6532;BME280;3299;42.004;24.868;2023-03-18T01:47:48;98669.13;;;6.61;69.50
6532;BME280;3299;42.004;24.868;2023-03-18T01:50:18;98607.94;;;6.17;69.86
6532;BME280;3299;42.004;24.868;2023-03-18T01:52:45;98580.13;;;5.89;69.96
6532;BME280;3299;42.004;24.868;2023-03-18T01:55:15;98585.25;;;5.89;70.32
6532;BME280;3299;42.004;24.868;2023-03-18T01:57:42;98642.28;;;6.14;70.95
6532;BME280;3299;42.004;24.868;2023-03-18T02:00:09;98580.13;;;5.89;70.93
6532;BME280;3299;42.004;24.868;2023-03-18T02:02:38;98661.44;;;6.43;70.61
6532;BME280;3299;42.004;24.868;2023-03-18T02:05:06;98632.91;;;6.13;71.38
6532;BME280;3299;42.004;24.868;2023-03-18T02:07:34;98573.28;;;5.90;70.87
6532;BME280;3299;42.004;24.868;2023-03-18T02:10:03;98577.09;;;5.81;71.53
6532;BME280;3299;42.004;24.868;2023-03-18T02:12:35;98654.56;;;6.26;71.97
6532;BME280;3299;42.004;24.868;2023-03-18T02:15:06;98652.81;;;6.27;71.73
6532;BME280;3299;42.004;24.868;2023-03-18T02:17:35;98572.81;;;5.99;71.24
6532;BME280;3299;42.004;24.868;2023-03-18T02:22:54;98594.38;;;6.13;71.13
6532;BME280;3299;42.004;24.868;2023-03-18T02:26:11;98666.16;;;6.52;71.01
6532;BME280;3299;42.004;24.868;2023-03-18T02:28:25;98592.16;;;5.89;72.17
6532;BME280;3299;42.004;24.868;2023-03-18T02:30:57;98570.69;;;5.71;72.56
6532;BME280;3299;42.004;24.868;2023-03-18T02:33:29;98602.59;;;6.03;72.22
6532;BME280;3299;42.004;24.868;2023-03-18T02:36:01;98566.81;;;6.00;71.35
6532;BME280;3299;42.004;24.868;2023-03-18T02:38:27;98655.97;;;6.67;70.91
6532;BME280;3299;42.004;24.868;2023-03-18T02:40:52;98581.53;;;6.30;70.38
6532;BME280;3299;42.004;24.868;2023-03-18T02:48:22;98581.06;;;6.05;70.90
6532;BME280;3299;42.004;24.868;2023-03-18T02:50:48;98626.44;;;6.23;71.00
6532;BME280;3299;42.004;24.868;2023-03-18T02:53:14;98620.84;;;5.97;72.20
6532;BME280;3299;42.004;24.868;2023-03-18T02:55:40;98629.31;;;5.99;72.50
6532;BME280;3299;42.004;24.868;2023-03-18T02:58:07;98578.06;;;5.60;73.10
6532;BME280;3299;42.004;24.868;2023-03-18T03:00:33;98596.50;;;5.68;73.44
6532;BME280;3299;42.004;24.868;2023-03-18T03:02:59;98659.59;;;6.11;73.20
6532;BME280;3299;42.004;24.868;2023-03-18T03:05:26;98661.66;;;5.84;73.91
6532;BME280;3299;42.004;24.868;2023-03-18T03:07:52;98674.56;;;6.01;73.91
6532;BME280;3299;42.004;24.868;2023-03-18T03:10:17;98681.88;;;6.10;73.44
6532;BME280;3299;42.004;24.868;2023-03-18T03:12:43;98665.97;;;6.02;73.28
6532;BME280;3299;42.004;24.868;2023-03-18T03:15:10;98614.81;;;5.79;73.34
6532;BME280;3299;42.004;24.868;2023-03-18T03:17:35;98662.34;;;6.06;73.33
6532;BME280;3299;42.004;24.868;2023-03-18T03:20:02;98667.81;;;6.17;73.21
6532;BME280;3299;42.004;24.868;2023-03-18T03:22:30;98662.78;;;5.97;73.86
6532;BME280;3299;42.004;24.868;2023-03-18T03:24:56;98592.56;;;5.61;74.07
6532;BME280;3299;42.004;24.868;2023-03-18T03:27:22;98652.19;;;5.86;74.53
6532;BME280;3299;42.004;24.868;2023-03-18T03:29:47;98612.03;;;5.65;74.10
6532;BME280;3299;42.004;24.868;2023-03-18T03:32:14;98638.28;;;5.72;74.28
6532;BME280;3299;42.004;24.868;2023-03-18T03:34:40;98646.19;;;5.67;74.60
6532;BME280;3299;42.004;24.868;2023-03-18T03:37:07;98625.09;;;5.61;75.10
6532;BME280;3299;42.004;24.868;2023-03-18T03:39:33;98638.81;;;5.60;74.87
6532;BME280;3299;42.004;24.868;2023-03-18T03:41:58;98634.44;;;5.43;75.81
6532;BME280;3299;42.004;24.868;2023-03-18T03:44:24;98582.88;;;5.11;76.08
6532;BME280;3299;42.004;24.868;2023-03-18T03:46:50;98669.97;;;5.52;76.33
6532;BME280;3299;42.004;24.868;2023-03-18T03:49:15;98646.13;;;5.30;77.34
6532;BME280;3299;42.004;24.868;2023-03-18T03:51:41;98580.38;;;4.91;78.14
6532;BME280;3299;42.004;24.868;2023-03-18T03:54:07;98676.63;;;5.56;77.61
6532;BME280;3299;42.004;24.868;2023-03-18T03:56:32;98601.25;;;5.20;77.33
6532;BME280;3299;42.004;24.868;2023-03-18T03:58:57;98607.66;;;5.30;76.64
6532;BME280;3299;42.004;24.868;2023-03-18T04:01:24;98664.91;;;5.69;76.77
6532;BME280;3299;42.004;24.868;2023-03-18T04:03:50;98593.75;;;5.36;76.20
6532;BME280;3299;42.004;24.868;2023-03-18T04:06:15;98606.44;;;5.57;75.47
6532;BME280;3299;42.004;24.868;2023-03-18T04:08:41;98595.81;;;5.46;75.12
6532;BME280;3299;42.004;24.868;2023-03-18T04:11:06;98690.59;;;6.06;75.09
6532;BME280;3299;42.004;24.868;2023-03-18T04:13:32;98662.84;;;5.96;75.01
6532;BME280;3299;42.004;24.868;2023-03-18T04:15:58;98680.53;;;6.20;74.43
6532;BME280;3299;42.004;24.868;2023-03-18T04:18:24;98673.22;;;6.30;74.08
6532;BME280;3299;42.004;24.868;2023-03-18T04:20:50;98620.63;;;6.01;73.67
6532;BME280;3299;42.004;24.868;2023-03-18T04:23:16;98687.91;;;6.45;73.51
6532;BME280;3299;42.004;24.868;2023-03-18T04:25:43;98666.78;;;6.21;73.08
6532;BME280;3299;42.004;24.868;2023-03-18T04:28:08;98624.09;;;6.00;72.77
6532;BME280;3299;42.004;24.868;2023-03-18T04:30:34;98676.22;;;6.21;72.66
6532;BME280;3299;42.004;24.868;2023-03-18T04:33:00;98612.38;;;5.76;73.48
6532;BME280;3299;42.004;24.868;2023-03-18T04:35:26;98669.94;;;5.91;74.77
6532;BME280;3299;42.004;24.868;2023-03-18T04:37:52;98668.63;;;5.82;75.35
6532;BME280;3299;42.004;24.868;2023-03-18T04:40:19;98660.59;;;5.70;76.14
6532;BME280;3299;42.004;24.868;2023-03-18T04:42:44;98652.56;;;5.77;76.27
6532;BME280;3299;42.004;24.868;2023-03-18T04:45:12;98609.00;;;5.57;76.23
6532;BME280;3299;42.004;24.868;2023-03-18T04:47:39;98597.19;;;5.53;76.45
6532;BME280;3299;42.004;24.868;2023-03-18T04:50:06;98675.81;;;6.11;75.98
6532;BME280;3299;42.004;24.868;2023-03-18T04:52:35;98633.66;;;5.78;75.69
6532;BME280;3299;42.004;24.868;2023-03-18T04:55:00;98623.16;;;5.66;76.07
6532;BME280;3299;42.004;24.868;2023-03-18T04:57:26;98630.63;;;5.70;76.31
6532;BME280;3299;42.004;24.868;2023-03-18T04:59:52;98696.44;;;6.10;75.63
6532;BME280;3299;42.004;24.868;2023-03-18T05:02:18;98608.91;;;5.77;74.77
6532;BME280;3299;42.004;24.868;2023-03-18T05:04:44;98658.16;;;6.22;73.04
6532;BME280;3299;42.004;24.868;2023-03-18T05:07:13;98660.38;;;6.30;72.42
6532;BME280;3299;42.004;24.868;2023-03-18T05:09:39;98660.75;;;6.22;72.54
6532;BME280;3299;42.004;24.868;2023-03-18T05:12:08;98609.28;;;5.88;73.30
6532;BME280;3299;42.004;24.868;2023-03-18T05:14:35;98651.03;;;6.10;72.92
6532;BME280;3299;42.004;24.868;2023-03-18T05:17:01;98644.38;;;6.06;72.82
6532;BME280;3299;42.004;24.868;2023-03-18T05:19:28;98667.31;;;6.28;72.44
6532;BME280;3299;42.004;24.868;2023-03-18T05:21:53;98654.22;;;6.15;72.52
6532;BME280;3299;42.004;24.868;2023-03-18T05:24:19;98674.88;;;6.31;73.05
6532;BME280;3299;42.004;24.868;2023-03-18T05:26:45;98708.72;;;6.57;72.60
6532;BME280;3299;42.004;24.868;2023-03-18T05:29:10;98620.34;;;6.07;72.07
6532;BME280;3299;42.004;24.868;2023-03-18T05:31:36;98681.16;;;6.42;71.69
6532;BME280;3299;42.004;24.868;2023-03-18T05:34:01;98698.00;;;6.66;70.93
6532;BME280;3299;42.004;24.868;2023-03-18T05:36:26;98708.88;;;6.71;70.47
6532;BME280;3299;42.004;24.868;2023-03-18T05:38:53;98710.47;;;6.74;69.42
6532;BME280;3299;42.004;24.868;2023-03-18T05:41:19;98708.44;;;6.80;69.54
6532;BME280;3299;42.004;24.868;2023-03-18T05:43:44;98673.19;;;6.65;69.34
6532;BME280;3299;42.004;24.868;2023-03-18T05:46:10;98697.00;;;6.86;69.20
6532;BME280;3299;42.004;24.868;2023-03-18T05:48:35;98632.28;;;6.44;68.81
6532;BME280;3299;42.004;24.868;2023-03-18T05:51:01;98706.03;;;6.94;68.89
6532;BME280;3299;42.004;24.868;2023-03-18T05:53:28;98636.00;;;6.55;68.55
6532;BME280;3299;42.004;24.868;2023-03-18T05:55:54;98639.00;;;6.63;67.52
6532;BME280;3299;42.004;24.868;2023-03-18T05:58:20;98711.03;;;7.14;67.48
6532;BME280;3299;42.004;24.868;2023-03-18T06:00:46;98724.88;;;7.29;67.12
6532;BME280;3299;42.004;24.868;2023-03-18T06:03:11;98709.38;;;7.13;66.87
6532;BME280;3299;42.004;24.868;2023-03-18T06:05:36;98732.66;;;7.27;67.18
6532;BME280;3299;42.004;24.868;2023-03-18T06:08:02;98719.03;;;7.25;67.36
6532;BME280;3299;42.004;24.868;2023-03-18T06:10:27;98716.22;;;7.30;67.79
6532;BME280;3299;42.004;24.868;2023-03-18T06:12:53;98700.94;;;7.27;68.01
6532;BME280;3299;42.004;24.868;2023-03-18T06:15:21;98633.88;;;6.97;68.43
6532;BME280;3299;42.004;24.868;2023-03-18T06:17:47;98627.81;;;6.98;68.02
6532;BME280;3299;42.004;24.868;2023-03-18T06:20:13;98695.41;;;7.34;68.44
6532;BME280;3299;42.004;24.868;2023-03-18T06:22:38;98703.34;;;7.47;68.67
6532;BME280;3299;42.004;24.868;2023-03-18T06:25:05;98667.25;;;7.31;68.74
6532;BME280;3299;42.004;24.868;2023-03-18T06:27:32;98625.34;;;7.12;68.44
6532;BME280;3299;42.004;24.868;2023-03-18T06:29:58;98703.22;;;7.65;67.90
6532;BME280;3299;42.004;24.868;2023-03-18T06:32:27;98633.94;;;7.28;67.63
6532;BME280;3299;42.004;24.868;2023-03-18T06:34:54;98625.56;;;7.25;67.32
6532;BME280;3299;42.004;24.868;2023-03-18T06:37:20;98656.94;;;7.48;67.47
6532;BME280;3299;42.004;24.868;2023-03-18T06:39:45;98706.81;;;7.78;68.16
6532;BME280;3299;42.004;24.868;2023-03-18T06:42:11;98711.66;;;7.84;67.87
6532;BME280;3299;42.004;24.868;2023-03-18T06:44:37;98614.06;;;7.15;68.71
6532;BME280;3299;42.004;24.868;2023-03-18T06:47:03;98689.94;;;7.73;68.51
6532;BME280;3299;42.004;24.868;2023-03-18T06:49:29;98656.81;;;7.50;68.62
6532;BME280;3299;42.004;24.868;2023-03-18T06:51:55;98634.53;;;7.33;68.91
6532;BME280;3299;42.004;24.868;2023-03-18T06:54:20;98618.72;;;7.08;69.19
6532;BME280;3299;42.004;24.868;2023-03-18T06:56:46;98634.47;;;7.02;70.11
6532;BME280;3299;42.004;24.868;2023-03-18T06:59:11;98700.44;;;7.53;70.14
6532;BME280;3299;42.004;24.868;2023-03-18T07:01:37;98674.13;;;7.63;69.17
6532;BME280;3299;42.004;24.868;2023-03-18T07:04:02;98612.81;;;7.39;68.50
6532;BME280;3299;42.004;24.868;2023-03-18T07:06:30;98616.63;;;7.47;68.71
6532;BME280;3299;42.004;24.868;2023-03-18T07:08:56;98632.94;;;7.63;68.29
6532;BME280;3299;42.004;24.868;2023-03-18T07:11:22;98705.78;;;8.13;68.37
6532;BME280;3299;42.004;24.868;2023-03-18T07:13:49;98654.91;;;8.01;67.37
6532;BME280;3299;42.004;24.868;2023-03-18T07:16:15;98621.31;;;8.03;66.54
6532;BME280;3299;42.004;24.868;2023-03-18T07:18:41;98660.25;;;8.29;65.83
6532;BME280;3299;42.004;24.868;2023-03-18T07:21:07;98696.72;;;8.53;64.65
6532;BME280;3299;42.004;24.868;2023-03-18T07:23:34;98711.09;;;8.57;65.12
6532;BME280;3299;42.004;24.868;2023-03-18T07:25:59;98636.25;;;8.12;62.29
6532;BME280;3299;42.004;24.868;2023-03-18T07:28:24;98661.41;;;8.24;62.34
6532;BME280;3299;42.004;24.868;2023-03-18T07:30:50;98645.44;;;8.17;62.72
6532;BME280;3299;42.004;24.868;2023-03-18T07:33:15;98711.34;;;8.68;62.94
6532;BME280;3299;42.004;24.868;2023-03-18T07:35:42;98671.31;;;8.61;61.91
6532;BME280;3299;42.004;24.868;2023-03-18T07:38:08;98620.22;;;8.38;61.46
6532;BME280;3299;42.004;24.868;2023-03-18T07:40:34;98662.78;;;8.74;60.79
6532;BME280;3299;42.004;24.868;2023-03-18T07:42:59;98699.53;;;8.93;60.35
6532;BME280;3299;42.004;24.868;2023-03-18T07:45:25;98710.97;;;9.03;60.22
6532;BME280;3299;42.004;24.868;2023-03-18T07:47:50;98632.38;;;8.65;59.25
6532;BME280;3299;42.004;24.868;2023-03-18T07:50:16;98716.41;;;9.28;58.40
6532;BME280;3299;42.004;24.868;2023-03-18T07:52:43;98660.56;;;8.98;57.87
6532;BME280;3299;42.004;24.868;2023-03-18T07:55:09;98699.22;;;9.13;58.64
6532;BME280;3299;42.004;24.868;2023-03-18T07:57:36;98669.03;;;9.00;58.78
6532;BME280;3299;42.004;24.868;2023-03-18T08:00:04;98675.22;;;8.97;55.70
6532;BME280;3299;42.004;24.868;2023-03-18T08:02:30;98623.00;;;8.64;55.81
6532;BME280;3299;42.004;24.868;2023-03-18T08:04:56;98643.91;;;8.74;54.88
6532;BME280;3299;42.004;24.868;2023-03-18T08:07:21;98685.53;;;8.97;55.21
6532;BME280;3299;42.004;24.868;2023-03-18T08:09:48;98638.84;;;8.72;55.41
6532;BME280;3299;42.004;24.868;2023-03-18T08:12:17;98659.88;;;8.80;55.27
6532;BME280;3299;42.004;24.868;2023-03-18T08:14:43;98709.63;;;9.12;55.42
6532;BME280;3299;42.004;24.868;2023-03-18T08:17:09;98650.31;;;8.82;55.93
6532;BME280;3299;42.004;24.868;2023-03-18T08:19:34;98733.63;;;9.14;56.57
6532;BME280;3299;42.004;24.868;2023-03-18T08:22:03;98700.28;;;8.95;57.46
6532;BME280;3299;42.004;24.868;2023-03-18T08:24:28;98718.22;;;9.12;58.11
6532;BME280;3299;42.004;24.868;2023-03-18T08:26:54;98746.63;;;9.26;58.07
6532;BME280;3299;42.004;24.868;2023-03-18T08:29:20;98648.81;;;8.78;58.45
6532;BME280;3299;42.004;24.868;2023-03-18T08:31:45;98719.03;;;9.13;58.52
6532;BME280;3299;42.004;24.868;2023-03-18T08:34:11;98741.31;;;9.29;58.16
6532;BME280;3299;42.004;24.868;2023-03-18T08:36:39;98665.47;;;8.73;57.83
6532;BME280;3299;42.004;24.868;2023-03-18T08:39:05;98707.53;;;8.89;58.36
6532;BME280;3299;42.004;24.868;2023-03-18T08:41:30;98741.59;;;9.09;58.63
6532;BME280;3299;42.004;24.868;2023-03-18T08:43:56;98714.31;;;9.05;57.94
6532;BME280;3299;42.004;24.868;2023-03-18T08:46:23;98696.03;;;8.94;57.91
6532;BME280;3299;42.004;24.868;2023-03-18T08:48:48;98671.59;;;8.86;57.56
6532;BME280;3299;42.004;24.868;2023-03-18T08:51:14;98677.97;;;8.94;57.40
6532;BME280;3299;42.004;24.868;2023-03-18T08:53:41;98730.78;;;9.32;56.83
6532;BME280;3299;42.004;24.868;2023-03-18T08:56:06;98752.41;;;9.45;56.36
6532;BME280;3299;42.004;24.868;2023-03-18T08:58:32;98737.97;;;9.27;55.79
6532;BME280;3299;42.004;24.868;2023-03-18T09:00:58;98710.31;;;9.00;56.45
6532;BME280;3299;42.004;24.868;2023-03-18T09:03:23;98671.28;;;8.76;56.94
6532;BME280;3299;42.004;24.868;2023-03-18T09:05:52;98755.88;;;9.30;56.62
6532;BME280;3299;42.004;24.868;2023-03-18T09:08:18;98675.56;;;8.91;56.69
6532;BME280;3299;42.004;24.868;2023-03-18T09:10:44;98745.19;;;9.36;56.72
6532;BME280;3299;42.004;24.868;2023-03-18T09:13:10;98727.75;;;9.26;56.67
6532;BME280;3299;42.004;24.868;2023-03-18T09:15:36;98708.44;;;9.17;55.94
6532;BME280;3299;42.004;24.868;2023-03-18T09:18:02;98718.41;;;9.23;56.26
6532;BME280;3299;42.004;24.868;2023-03-18T09:20:28;98773.22;;;9.42;55.71
6532;BME280;3299;42.004;24.868;2023-03-18T09:22:53;98726.69;;;9.14;55.83
6532;BME280;3299;42.004;24.868;2023-03-18T09:25:19;98712.13;;;8.84;56.34
6532;BME280;3299;42.004;24.868;2023-03-18T09:27:44;98711.47;;;8.80;56.67
6532;BME280;3299;42.004;24.868;2023-03-18T09:30:10;98723.00;;;8.89;56.66
6532;BME280;3299;42.004;24.868;2023-03-18T09:32:38;98762.88;;;8.99;57.24
6532;BME280;3299;42.004;24.868;2023-03-18T09:35:04;98721.53;;;8.69;57.91
6532;BME280;3299;42.004;24.868;2023-03-18T09:37:29;98749.50;;;8.77;57.83
6532;BME280;3299;42.004;24.868;2023-03-18T09:39:55;98744.34;;;8.77;57.85
6532;BME280;3299;42.004;24.868;2023-03-18T09:45:19;98790.63;;;8.80;58.64
6532;BME280;3299;42.004;24.868;2023-03-18T09:47:57;98804.09;;;8.69;59.31
6532;BME280;3299;42.004;24.868;2023-03-18T09:55:58;98809.59;;;8.63;58.63
6532;BME280;3299;42.004;24.868;2023-03-18T09:58:48;98810.50;;;8.78;58.38
6532;BME280;3299;42.004;24.868;2023-03-18T10:01:19;98805.09;;;8.82;58.33
6532;BME280;3299;42.004;24.868;2023-03-18T10:04:26;98803.44;;;8.66;59.03
6532;BME280;3299;42.004;24.868;2023-03-18T10:06:57;98801.69;;;8.66;59.48
6532;BME280;3299;42.004;24.868;2023-03-18T10:09:35;98800.28;;;8.76;59.84
6532;BME280;3299;42.004;24.868;2023-03-18T10:12:15;98792.44;;;8.62;59.85
6532;BME280;3299;42.004;24.868;2023-03-18T10:14:48;98813.09;;;8.62;60.06
6532;BME280;3299;42.004;24.868;2023-03-18T10:17:33;98811.25;;;8.49;60.85
6532;BME280;3299;42.004;24.868;2023-03-18T10:20:03;98729.22;;;7.76;61.04
6532;BME280;3299;42.004;24.868;2023-03-18T10:25:10;98811.25;;;8.33;60.82
6532;BME280;3299;42.004;24.868;2023-03-18T10:28:02;98816.59;;;8.46;60.41
6532;BME280;3299;42.004;24.868;2023-03-18T10:30:46;98813.41;;;8.41;60.72
6532;BME280;3299;42.004;24.868;2023-03-18T10:36:07;98728.47;;;8.22;59.93
6532;BME280;3299;42.004;24.868;2023-03-18T10:38:40;98802.44;;;8.68;58.31
6532;BME280;3299;42.004;24.868;2023-03-18T10:41:33;98802.75;;;8.78;58.44
6532;BME280;3299;42.004;24.868;2023-03-18T10:44:13;98776.81;;;8.65;56.96
6532;BME280;3299;42.004;24.868;2023-03-18T10:46:42;98744.03;;;8.52;57.13
6532;BME280;3299;42.004;24.868;2023-03-18T10:49:17;98765.66;;;8.65;56.19
6532;BME280;3299;42.004;24.868;2023-03-18T10:54:41;98813.03;;;9.24;54.73
6532;BME280;3299;42.004;24.868;2023-03-18T10:57:13;98785.72;;;9.20;55.21
6532;BME280;3299;42.004;24.868;2023-03-18T10:59:39;98768.78;;;9.30;54.48
6532;BME280;3299;42.004;24.868;2023-03-18T11:02:33;98727.53;;;9.29;55.04
6532;BME280;3299;42.004;24.868;2023-03-18T11:07:54;98804.09;;;9.59;49.86
6532;BME280;3299;42.004;24.868;2023-03-18T11:10:24;98800.34;;;9.49;49.93
6532;BME280;3299;42.004;24.868;2023-03-18T11:12:54;98792.81;;;9.60;50.07
6532;BME280;3299;42.004;24.868;2023-03-18T11:15:24;98743.63;;;9.48;50.20
6532;BME280;3299;42.004;24.868;2023-03-18T11:17:50;98786.41;;;9.95;50.97
6532;BME280;3299;42.004;24.868;2023-03-18T11:20:38;98750.59;;;9.89;50.45
6532;BME280;3299;42.004;24.868;2023-03-18T11:23:18;98730.00;;;10.01;49.28
6532;BME280;3299;42.004;24.868;2023-03-18T11:26:00;98787.91;;;10.27;49.62
6532;BME280;3299;42.004;24.868;2023-03-18T11:28:27;98703.91;;;9.64;49.61
6532;BME280;3299;42.004;24.868;2023-03-18T11:30:56;98735.97;;;9.74;49.62
6532;BME280;3299;42.004;24.868;2023-03-18T11:33:28;98748.91;;;10.02;49.23
6532;BME280;3299;42.004;24.868;2023-03-18T11:35:57;98750.06;;;10.12;49.50
6532;BME280;3299;42.004;24.868;2023-03-18T11:38:33;98800.44;;;10.47;49.21
6532;BME280;3299;42.004;24.868;2023-03-18T11:41:24;98791.91;;;10.59;48.93
6532;BME280;3299;42.004;24.868;2023-03-18T11:44:16;98791.22;;;10.69;49.26
6532;BME280;3299;42.004;24.868;2023-03-18T11:49:15;98776.38;;;10.73;49.97
6532;BME280;3299;42.004;24.868;2023-03-18T11:51:59;98791.91;;;10.73;49.38
6532;BME280;3299;42.004;24.868;2023-03-18T12:00:02;98800.00;;;10.81;48.89
6532;BME280;3299;42.004;24.868;2023-03-18T12:05:05;98780.16;;;10.94;48.95
6532;BME280;3299;42.004;24.868;2023-03-18T12:13:16;98779.63;;;11.28;48.73
6532;BME280;3299;42.004;24.868;2023-03-18T12:18:49;98778.47;;;11.71;47.17
6532;BME280;3299;42.004;24.868;2023-03-18T12:24:49;98780.63;;;12.27;45.29
6532;BME280;3299;42.004;24.868;2023-03-18T12:30:42;98780.34;;;11.94;45.78
6532;BME280;3299;42.004;24.868;2023-03-18T12:42:16;98767.06;;;11.73;45.49
6532;BME280;3299;42.004;24.868;2023-03-18T12:49:48;98715.03;;;11.64;44.36
6532;BME280;3299;42.004;24.868;2023-03-18T12:52:39;98758.94;;;12.28;44.39
6532;BME280;3299;42.004;24.868;2023-03-18T12:55:14;98762.97;;;12.68;42.65
6532;BME280;3299;42.004;24.868;2023-03-18T12:57:45;98734.94;;;12.73;42.45
6532;BME280;3299;42.004;24.868;2023-03-18T13:05:24;98669.38;;;13.27;40.07
6532;BME280;3299;42.004;24.868;2023-03-18T13:08:17;98733.63;;;13.71;37.96
6532;BME280;3299;42.004;24.868;2023-03-18T13:11:39;98741.91;;;13.76;38.28
6532;BME280;3299;42.004;24.868;2023-03-18T13:13:49;98730.38;;;13.45;39.80
6532;BME280;3299;42.004;24.868;2023-03-18T13:16:18;98670.50;;;13.01;40.20
6532;BME280;3299;42.004;24.868;2023-03-18T13:18:48;98736.41;;;13.11;40.02
6532;BME280;3299;42.004;24.868;2023-03-18T13:21:20;98666.50;;;12.50;40.70
6532;BME280;3299;42.004;24.868;2023-03-18T13:32:10;98734.41;;;13.60;39.44
6532;BME280;3299;42.004;24.868;2023-03-18T13:40:19;98665.41;;;13.56;38.07
6532;BME280;3299;42.004;24.868;2023-03-18T13:42:55;98695.31;;;13.73;38.01
6532;BME280;3299;42.004;24.868;2023-03-18T13:48:01;98616.34;;;13.30;37.92
6532;BME280;3299;42.004;24.868;2023-03-18T13:50:35;98673.06;;;14.02;37.79
6532;BME280;3299;42.004;24.868;2023-03-18T13:53:03;98628.94;;;14.11;37.02
6532;BME280;3299;42.004;24.868;2023-03-18T13:55:39;98705.63;;;15.03;36.50
6532;BME280;3299;42.004;24.868;2023-03-18T14:00:38;98705.53;;;14.94;35.99
6532;BME280;3299;42.004;24.868;2023-03-18T14:13:39;98687.78;;;15.90;34.01
6532;BME280;3299;42.004;24.868;2023-03-18T14:16:10;98696.03;;;15.95;34.01
6532;BME280;3299;42.004;24.868;2023-03-18T14:18:36;98634.69;;;15.20;34.34
6532;BME280;3299;42.004;24.868;2023-03-18T14:21:04;98665.56;;;15.04;34.74
6532;BME280;3299;42.004;24.868;2023-03-18T14:26:25;98656.63;;;14.23;35.97
6532;BME280;3299;42.004;24.868;2023-03-18T14:39:24;98697.66;;;13.43;38.84
6532;BME280;3299;42.004;24.868;2023-03-18T14:41:56;98646.66;;;13.07;39.12
6532;BME280;3299;42.004;24.868;2023-03-18T14:44:48;98610.75;;;12.67;38.99
6532;BME280;3299;42.004;24.868;2023-03-18T14:47:37;98651.91;;;12.95;38.89
6532;BME280;3299;42.004;24.868;2023-03-18T14:52:57;98598.63;;;12.44;39.22
6532;BME280;3299;42.004;24.868;2023-03-18T14:55:30;98676.34;;;12.69;39.72
6532;BME280;3299;42.004;24.868;2023-03-18T14:57:56;98640.41;;;12.52;40.16
6532;BME280;3299;42.004;24.868;2023-03-18T15:00:22;98657.09;;;12.60;39.85
6532;BME280;3299;42.004;24.868;2023-03-18T15:02:58;98607.75;;;12.26;39.21
6532;BME280;3299;42.004;24.868;2023-03-18T15:05:32;98598.28;;;11.53;41.59
6532;BME280;3299;42.004;24.868;2023-03-18T15:07:58;98640.19;;;11.59;41.43
6532;BME280;3299;42.004;24.868;2023-03-18T15:10:28;98633.75;;;11.27;43.20
6532;BME280;3299;42.004;24.868;2023-03-18T15:13:24;98682.88;;;11.66;42.28
6532;BME280;3299;42.004;24.868;2023-03-18T15:15:53;98642.66;;;11.23;43.49
6532;BME280;3299;42.004;24.868;2023-03-18T15:18:33;98676.56;;;11.33;44.85
6532;BME280;3299;42.004;24.868;2023-03-18T15:21:25;98670.34;;;10.84;46.11
6532;BME280;3299;42.004;24.868;2023-03-18T15:23:56;98682.59;;;10.82;45.49
6532;BME280;3299;42.004;24.868;2023-03-18T15:26:32;98681.66;;;10.44;47.20
6532;BME280;3299;42.004;24.868;2023-03-18T15:29:00;98674.78;;;10.16;48.04